Time;durP1;ratioP1;P1;durP2;ratioP2;P2;SDS_P1;SDS_P2;PMS_P1;PMS_P2;Temp;Humidity;BMP_temperature;BMP_pressure;BME280_temperature;BME280_humidity;BME280_pressure;Samples;Min_cycle;Max_cycle;Signal;HPM_P1;HPM_P2
2022/06/08 00:00:54;;;;;;;6.20;5.97;;;;;;;16.73;84.61;100411.19;5055361;28;20071;-60
2022/06/08 00:03:36;;;;;;;6.40;6.10;;;;;;;16.72;84.78;100409.56;5053892;28;20405;-61
2022/06/08 00:06:02;;;;;;;6.40;6.10;;;;;;;16.66;86.18;100409.56;5043801;28;20024;-60
2022/06/08 00:08:27;;;;;;;6.32;6.05;;;;;;;16.65;88.77;100410.59;5053976;28;20032;-60
2022/06/08 00:10:53;;;;;;;6.13;5.93;;;;;;;16.54;90.44;100407.59;5054678;28;20061;-60
2022/06/08 00:13:19;;;;;;;6.18;5.97;;;;;;;16.60;89.64;100411.28;5054666;28;20515;-61
2022/06/08 00:15:44;;;;;;;6.38;6.10;;;;;;;16.38;89.91;100410.81;5057842;28;20021;-59
2022/06/08 00:18:10;;;;;;;6.70;6.40;;;;;;;16.46;90.43;100409.72;5054653;28;20025;-60
2022/06/08 00:20:37;;;;;;;6.50;6.20;;;;;;;16.15;96.75;100414.00;5053041;28;20024;-60
2022/06/08 00:23:03;;;;;;;7.10;6.80;;;;;;;16.37;96.72;100419.03;5053331;28;20028;-60
2022/06/08 00:25:30;;;;;;;6.20;6.00;;;;;;;16.39;96.49;100420.47;5054841;28;20063;-60
2022/06/08 00:27:55;;;;;;;6.35;6.07;;;;;;;16.37;96.02;100419.84;5054617;28;20021;-59
2022/06/08 00:30:22;;;;;;;6.55;6.25;;;;;;;16.41;96.60;100417.56;5055949;28;20104;-60
2022/06/08 00:32:47;;;;;;;6.35;6.05;;;;;;;16.41;98.18;100420.25;5058956;28;20029;-60
2022/06/08 00:35:13;;;;;;;6.38;6.07;;;;;;;15.78;100.00;100417.44;5054088;28;20116;-59
2022/06/08 00:37:39;;;;;;;6.10;5.90;;;;;;;15.77;100.00;100423.84;5053620;28;20029;-59
2022/06/08 00:40:08;;;;;;;6.40;6.10;;;;;;;15.73;100.00;100418.94;5050808;28;20496;-62
2022/06/08 00:42:34;;;;;;;6.10;5.90;;;;;;;15.65;100.00;100413.81;5048265;28;20031;-60
2022/06/08 00:45:07;;;;;;;6.03;5.82;;;;;;;15.79;100.00;100413.75;5053907;28;20049;-59
2022/06/08 00:47:42;;;;;;;6.00;5.80;;;;;;;15.71;100.00;100406.78;5044931;28;20028;-61
2022/06/08 00:50:13;;;;;;;6.63;6.32;;;;;;;15.61;100.00;100401.03;5058586;28;20029;-60
2022/06/08 00:52:40;;;;;;;5.90;5.70;;;;;;;15.46;100.00;100409.28;5054337;28;20078;-60
2022/06/08 00:55:14;;;;;;;6.85;6.55;;;;;;;15.51;100.00;100411.34;5051689;28;20021;-61
2022/06/08 00:57:42;;;;;;;;;;;;;;;15.45;100.00;100405.81;5053141;28;20036;-61
2022/06/08 01:00:29;;;;;;;6.10;5.90;;;;;;;15.71;100.00;100402.25;5053952;28;19916;-59
2022/06/08 01:02:55;;;;;;;6.00;5.80;;;;;;;15.82;100.00;100397.28;5052782;28;20024;-60
2022/06/08 01:05:23;;;;;;;6.28;6.03;;;;;;;15.81;100.00;100403.69;5052704;28;20027;-60
2022/06/08 01:07:52;;;;;;;6.10;5.90;;;;;;;15.72;100.00;100401.25;5059503;28;20492;-60
2022/06/08 01:10:23;;;;;;;6.05;5.85;;;;;;;15.74;100.00;100404.50;5053606;28;20025;-60
2022/06/08 01:12:49;;;;;;;6.32;6.05;;;;;;;15.68;100.00;100402.69;5052375;28;20057;-60
2022/06/08 01:15:21;;;;;;;6.20;6.00;;;;;;;15.54;100.00;100409.06;5051845;28;20017;-61
2022/06/08 01:17:47;;;;;;;6.13;5.93;;;;;;;15.25;100.00;100406.88;5053999;28;20435;-60
2022/06/08 01:20:12;;;;;;;6.10;5.90;;;;;;;15.30;100.00;100397.22;5053679;28;20059;-59
2022/06/08 01:22:39;;;;;;;6.30;6.00;;;;;;;15.36;100.00;100398.22;5058402;28;20024;-60
2022/06/08 01:25:06;;;;;;;6.40;6.10;;;;;;;15.56;100.00;100398.97;5053681;28;20017;-59
2022/06/08 01:27:54;;;;;;;6.15;5.95;;;;;;;15.59;100.00;100395.91;5053014;28;20059;-59
2022/06/08 01:30:41;;;;;;;6.20;6.00;;;;;;;15.60;100.00;100391.38;5051710;28;20021;-59
2022/06/08 01:33:32;;;;;;;6.50;6.20;;;;;;;15.57;100.00;100394.44;5053543;28;20078;-60
2022/06/08 01:35:57;;;;;;;6.10;5.90;;;;;;;15.34;100.00;100393.06;5053883;28;20108;-60
2022/06/08 01:38:28;;;;;;;6.32;6.03;;;;;;;15.42;100.00;100392.88;5054296;28;20045;-59
2022/06/08 01:41:15;;;;;;;6.22;6.00;;;;;;;15.35;100.00;100388.53;5053961;28;20027;-59
2022/06/08 01:44:02;;;;;;;6.00;5.80;;;;;;;15.29;100.00;100386.72;5042877;28;20036;-58
2022/06/08 01:46:35;;;;;;;6.00;5.80;;;;;;;15.19;100.00;100395.97;5048960;28;20060;-60
2022/06/08 01:49:18;;;;;;;6.05;5.85;;;;;;;15.23;100.00;100388.38;5053253;28;20025;-60
2022/06/08 01:52:00;;;;;;;6.10;5.90;;;;;;;15.19;100.00;100387.97;5053151;28;20032;-60
2022/06/08 01:54:37;;;;;;;6.60;6.30;;;;;;;15.28;100.00;100380.56;5052992;28;20511;-61
2022/06/08 01:57:02;;;;;;;6.22;6.00;;;;;;;15.32;100.00;100387.13;5054940;28;20052;-60
2022/06/08 01:59:54;;;;;;;6.10;5.90;;;;;;;15.36;100.00;100388.34;5052166;28;20496;-59
2022/06/08 02:02:31;;;;;;;6.43;6.13;;;;;;;15.33;100.00;100387.94;5052556;28;20013;-59
2022/06/08 02:05:08;;;;;;;6.50;6.20;;;;;;;15.28;100.00;100385.09;5040755;28;20032;-59
2022/06/08 02:07:47;;;;;;;6.07;5.88;;;;;;;15.08;100.00;100391.28;5052519;28;20040;-60
2022/06/08 02:10:12;;;;;;;6.05;5.85;;;;;;;15.13;100.00;100385.28;5052637;28;20520;-60
2022/06/08 02:12:45;;;;;;;6.50;6.20;;;;;;;14.98;100.00;100374.81;5052479;28;20033;-59
2022/06/08 02:15:21;;;;;;;6.15;5.85;;;;;;;15.04;99.24;100384.69;5040492;28;20053;-60
2022/06/08 02:17:55;;;;;;;6.40;6.10;;;;;;;15.09;98.31;100376.88;5052452;28;20087;-60
2022/06/08 02:21:06;;;;;;;5.95;5.75;;;;;;;15.13;97.68;100378.13;5051582;28;20576;-60
2022/06/08 02:23:49;;;;;;;6.00;5.80;;;;;;;15.01;97.67;100377.09;5004954;28;20041;-61
2022/06/08 02:26:18;;;;;;;6.00;5.80;;;;;;;15.12;96.98;100384.47;5040803;28;20021;-60
2022/06/08 02:28:48;;;;;;;6.35;6.05;;;;;;;15.16;96.97;100374.22;5050406;28;20419;-60
2022/06/08 02:31:37;;;;;;;6.30;6.00;;;;;;;15.31;96.23;100380.13;5048021;28;20032;-59
2022/06/08 02:34:36;;;;;;;6.05;5.85;;;;;;;15.40;95.11;100378.06;5052563;28;20388;-60
2022/06/08 02:37:12;;;;;;;6.30;6.00;;;;;;;15.49;94.89;100379.47;5048959;28;20073;-60
2022/06/08 02:39:49;;;;;;;5.90;5.70;;;;;;;15.67;93.88;100385.00;5051716;28;20086;-60
2022/06/08 02:42:21;;;;;;;6.18;5.97;;;;;;;16.03;91.68;100378.25;5066359;28;20377;-60
2022/06/08 02:44:51;;;;;;;6.03;5.82;;;;;;;16.52;88.96;100390.09;5051275;28;20033;-60
2022/06/08 02:47:29;;;;;;;6.50;6.20;;;;;;;16.85;86.44;100388.03;5061163;28;20070;-60
2022/06/08 02:49:55;;;;;;;6.07;5.88;;;;;;;17.18;84.32;100392.25;5054230;28;20048;-59
2022/06/08 02:52:24;;;;;;;6.40;6.10;;;;;;;17.45;83.25;100390.13;5052047;28;20468;-60
2022/06/08 02:54:51;;;;;;;6.25;6.03;;;;;;;17.86;81.39;100394.03;5049597;28;20025;-60
2022/06/08 02:57:25;;;;;;;6.40;6.10;;;;;;;18.13;78.55;100389.91;5052059;28;20074;-61
2022/06/08 02:59:54;;;;;;;6.57;6.28;;;;;;;19.23;72.81;100392.13;5051998;28;20024;-61
2022/06/08 03:02:22;;;;;;;6.60;6.30;;;;;;;20.64;66.94;100392.53;5042966;28;20040;-60
2022/06/08 03:04:47;;;;;;;6.60;6.30;;;;;;;21.45;64.98;100390.28;5051257;28;20065;-60
2022/06/08 03:07:21;;;;;;;6.47;6.18;;;;;;;22.54;59.94;100391.22;5060870;28;20071;-60
2022/06/08 03:09:48;;;;;;;6.53;6.23;;;;;;;22.86;58.38;100383.16;5051154;28;20021;-61
2022/06/08 03:12:30;;;;;;;6.60;6.30;;;;;;;23.16;57.50;100402.28;5046544;28;20044;-59
2022/06/08 03:14:56;;;;;;;6.80;6.50;;;;;;;23.52;56.29;100398.97;5051632;28;20027;-61
2022/06/08 03:17:26;;;;;;;6.70;6.40;;;;;;;24.16;54.29;100402.19;5052034;28;20028;-58
2022/06/08 03:19:51;;;;;;;6.85;6.55;;;;;;;24.81;51.98;100402.56;5051678;28;20024;-61
2022/06/08 03:22:17;;;;;;;6.60;6.30;;;;;;;25.83;49.35;100408.63;5061524;28;20435;-60
2022/06/08 03:24:45;;;;;;;6.40;6.10;;;;;;;25.72;48.26;100407.06;5051371;28;20025;-61
2022/06/08 03:27:11;;;;;;;6.50;6.20;;;;;;;26.45;46.58;100406.41;5045515;28;20025;-59
2022/06/08 03:29:37;;;;;;;6.70;6.40;;;;;;;26.57;45.85;100412.28;5050564;28;20018;-59
2022/06/08 03:32:03;;;;;;;6.90;6.60;;;;;;;26.49;45.35;100410.16;5047752;28;20051;-59
2022/06/08 03:34:28;;;;;;;6.90;6.60;;;;;;;27.35;43.89;100415.97;5055663;28;20441;-59
2022/06/08 03:36:54;;;;;;;6.82;6.53;;;;;;;27.47;42.68;100422.66;5055655;28;20059;-60
2022/06/08 03:39:19;;;;;;;6.90;6.60;;;;;;;27.52;42.23;100413.59;5055968;28;20020;-60
2022/06/08 03:41:45;;;;;;;6.75;6.45;;;;;;;27.87;41.79;100411.56;5047555;28;20025;-58
2022/06/08 03:44:11;;;;;;;6.93;6.63;;;;;;;27.84;41.73;100409.41;5047796;28;20435;-59
2022/06/08 03:46:44;;;;;;;7.00;6.70;;;;;;;28.64;40.68;100412.09;5048487;28;20072;-61
2022/06/08 03:49:11;;;;;;;6.95;6.65;;;;;;;29.16;39.22;100405.50;5059913;28;20107;-60
2022/06/08 03:51:39;;;;;;;6.90;6.60;;;;;;;29.46;38.63;100408.75;5055185;28;20552;-60
2022/06/08 03:54:26;;;;;;;6.95;6.65;;;;;;;30.74;36.46;100406.78;5055393;28;20443;-60
2022/06/08 03:57:00;;;;;;;7.00;6.70;;;;;;;30.32;36.49;100406.09;5040149;28;20036;-63
2022/06/08 03:59:25;;;;;;;;;;;;;;;30.77;35.44;100397.94;5056086;28;20028;-61
2022/06/08 04:01:51;;;;;;;7.15;6.85;;;;;;;30.54;35.70;100395.16;5044621;28;19913;-60
2022/06/08 04:04:16;;;;;;;7.18;6.88;;;;;;;30.87;35.26;100402.34;5044002;28;20033;-61
2022/06/08 04:06:43;;;;;;;7.00;6.70;;;;;;;31.61;34.32;100410.75;5041424;28;20025;-61
2022/06/08 04:09:09;;;;;;;7.10;6.80;;;;;;;31.64;33.78;100405.44;5052100;28;20029;-60
2022/06/08 04:11:35;;;;;;;7.00;6.70;;;;;;;32.42;32.41;100407.53;5052230;28;20644;-60
2022/06/08 04:14:01;;;;;;;6.95;6.65;;;;;;;32.63;32.21;100418.66;5053235;28;20112;-60
2022/06/08 04:16:27;;;;;;;7.00;6.70;;;;;;;32.24;32.85;100414.09;5037804;28;20027;-61
2022/06/08 04:18:53;;;;;;;7.03;6.72;;;;;;;32.67;32.11;100398.44;5048940;28;20024;-61
2022/06/08 04:21:19;;;;;;;7.15;6.85;;;;;;;33.04;31.47;100407.09;5047916;28;20040;-60
2022/06/08 04:23:46;;;;;;;7.10;6.80;;;;;;;33.05;31.00;100407.91;5052177;28;20391;-61
2022/06/08 04:26:13;;;;;;;7.15;6.85;;;;;;;33.43;30.79;100414.28;5056088;28;20033;-60
2022/06/08 04:28:40;;;;;;;7.30;7.00;;;;;;;33.38;30.18;100410.91;5052548;28;20029;-60
2022/06/08 04:31:06;;;;;;;6.93;6.63;;;;;;;32.62;30.73;100400.56;5057132;28;20055;-60
2022/06/08 04:33:32;;;;;;;7.10;6.80;;;;;;;33.73;29.48;100412.31;5054286;28;20043;-62
2022/06/08 04:35:58;;;;;;;7.20;6.90;;;;;;;32.90;30.58;100398.25;5051304;28;20028;-60
2022/06/08 04:38:24;;;;;;;7.10;6.80;;;;;;;32.61;31.14;100404.41;5043566;28;20033;-60
2022/06/08 04:40:50;;;;;;;7.20;6.90;;;;;;;32.96;30.42;100405.19;5044564;28;20028;-60
2022/06/08 04:43:17;;;;;;;7.00;6.70;;;;;;;33.67;29.56;100408.16;5039289;28;20021;-60
2022/06/08 04:45:43;;;;;;;7.28;6.97;;;;;;;33.57;29.77;100403.03;5053202;28;20052;-60
2022/06/08 04:48:09;;;;;;;7.10;6.80;;;;;;;33.68;29.22;100408.97;5054077;28;20021;-60
2022/06/08 04:50:35;;;;;;;7.00;6.70;;;;;;;34.04;28.63;100406.47;5054125;28;20102;-60
2022/06/08 04:53:02;;;;;;;7.28;6.97;;;;;;;34.28;28.69;100408.53;5051448;28;20025;-60
2022/06/08 04:55:27;;;;;;;6.90;6.60;;;;;;;34.25;28.05;100411.19;5053855;28;20123;-60
2022/06/08 04:57:53;;;;;;;7.15;6.85;;;;;;;34.51;27.69;100413.72;5053959;28;20106;-60
2022/06/08 05:00:22;;;;;;;7.10;6.80;;;;;;;34.77;27.06;100413.47;5041388;28;20507;-61
2022/06/08 05:02:49;;;;;;;7.30;7.00;;;;;;;34.58;27.79;100405.72;5047719;28;20025;-60
2022/06/08 05:05:19;;;;;;;7.40;7.10;;;;;;;34.19;27.71;100404.25;5050999;28;20033;-60
2022/06/08 05:07:46;;;;;;;7.15;6.85;;;;;;;35.20;26.73;100407.50;5042542;28;20041;-61
2022/06/08 05:10:12;;;;;;;7.10;6.80;;;;;;;35.59;26.00;100410.75;5039411;28;20025;-61
2022/06/08 05:12:38;;;;;;;6.95;6.65;;;;;;;35.82;25.17;100400.81;5047717;28;20048;-59
2022/06/08 05:15:10;;;;;;;7.20;6.90;;;;;;;36.19;25.35;100409.84;5053810;28;20025;-60
2022/06/08 05:17:36;;;;;;;7.43;7.13;;;;;;;36.71;24.47;100408.97;5050148;28;20056;-60
2022/06/08 05:20:03;;;;;;;7.25;6.95;;;;;;;36.45;24.97;100416.94;5044728;28;20060;-60
2022/06/08 05:22:29;;;;;;;7.50;7.20;;;;;;;35.68;25.23;100408.66;5053428;28;20029;-60
2022/06/08 05:24:54;;;;;;;7.30;7.00;;;;;;;35.44;25.26;100413.06;5053508;28;20031;-60
2022/06/08 05:27:21;;;;;;;7.32;7.03;;;;;;;37.04;23.79;100408.69;5036597;28;20030;-59
2022/06/08 05:29:46;;;;;;;7.40;7.10;;;;;;;36.19;23.35;100412.63;5048186;28;20469;-59
2022/06/08 05:32:11;;;;;;;7.15;6.85;;;;;;;36.83;22.61;100416.41;5053514;28;20033;-60
2022/06/08 05:34:37;;;;;;;7.10;6.80;;;;;;;37.48;22.58;100418.88;5053258;28;20021;-59
2022/06/08 05:37:03;;;;;;;7.50;7.20;;;;;;;37.17;23.04;100416.91;5052835;28;20095;-59
2022/06/08 05:39:29;;;;;;;7.18;6.88;;;;;;;37.28;22.57;100416.00;5053199;28;20086;-59
2022/06/08 05:41:54;;;;;;;7.22;6.93;;;;;;;37.29;22.64;100417.59;5050521;28;20036;-60
2022/06/08 05:44:20;;;;;;;7.32;7.03;;;;;;;37.51;21.79;100421.72;5042537;28;20037;-60
2022/06/08 05:46:50;;;;;;;7.32;7.03;;;;;;;37.45;21.64;100414.84;5051018;28;20053;-60
2022/06/08 05:49:17;;;;;;;7.18;6.88;;;;;;;38.16;21.20;100421.22;5055234;28;20056;-60
2022/06/08 05:51:43;;;;;;;7.25;6.95;;;;;;;37.74;21.77;100419.09;5052277;28;20116;-60
2022/06/08 05:54:09;;;;;;;7.22;6.93;;;;;;;38.51;21.34;100415.63;5052319;28;20048;-62
2022/06/08 05:56:35;;;;;;;7.53;7.22;;;;;;;38.34;21.43;100421.59;5053255;28;20029;-61
2022/06/08 05:59:00;;;;;;;7.30;7.00;;;;;;;38.68;20.60;100414.38;5052803;28;20323;-59
2022/06/08 06:01:26;;;;;;;7.45;7.15;;;;;;;39.20;20.19;100422.06;5041058;28;20033;-60
2022/06/08 06:03:52;;;;;;;7.28;6.97;;;;;;;39.83;19.53;100426.25;5048905;28;20070;-61
2022/06/08 06:06:17;;;;;;;7.45;7.15;;;;;;;38.73;20.08;100427.16;5051510;28;20083;-61
2022/06/08 06:08:45;;;;;;;7.55;7.25;;;;;;;39.44;20.34;100420.91;5052538;28;20052;-61
2022/06/08 06:11:15;;;;;;;7.20;6.90;;;;;;;39.03;20.04;100425.34;5058526;28;20142;-61
2022/06/08 06:13:41;;;;;;;7.43;7.13;;;;;;;39.56;19.24;100417.09;5053505;28;20036;-61
2022/06/08 06:16:07;;;;;;;7.20;6.90;;;;;;;40.42;18.41;100427.44;5042636;28;20031;-60
2022/06/08 06:18:33;;;;;;;7.45;7.15;;;;;;;39.33;19.43;100428.25;5044000;28;20021;-60
2022/06/08 06:20:59;;;;;;;7.57;7.28;;;;;;;39.61;19.38;100421.56;5050408;28;20111;-60
2022/06/08 06:23:27;;;;;;;7.53;7.22;;;;;;;39.37;19.36;100425.50;5052416;28;20473;-59
2022/06/08 06:25:53;;;;;;;7.50;7.20;;;;;;;39.30;18.94;100426.22;5052161;28;20111;-60
2022/06/08 06:28:18;;;;;;;7.35;7.05;;;;;;;38.74;19.94;100428.75;5053838;28;20416;-61
2022/06/08 06:30:44;;;;;;;7.18;6.88;;;;;;;38.83;19.32;100426.56;5050720;28;20043;-59
2022/06/08 06:33:14;;;;;;;7.53;7.22;;;;;;;38.67;19.86;100427.44;5050233;28;20025;-60
2022/06/08 06:35:41;;;;;;;7.25;6.95;;;;;;;39.94;18.50;100423.59;5055439;28;20033;-63
2022/06/08 06:38:08;;;;;;;7.47;7.18;;;;;;;39.44;19.13;100426.44;5053829;28;20020;-63
2022/06/08 06:40:34;;;;;;;7.30;7.00;;;;;;;40.42;17.89;100426.63;5052424;28;20056;-63
2022/06/08 06:43:00;;;;;;;7.40;7.10;;;;;;;40.44;17.26;100422.28;5039502;28;20037;-63
2022/06/08 06:45:26;;;;;;;7.60;7.30;;;;;;;38.05;18.93;100418.25;5050785;28;20496;-64
2022/06/08 06:47:52;;;;;;;7.30;7.00;;;;;;;40.81;16.81;100425.09;5051270;28;20043;-63
2022/06/08 06:50:18;;;;;;;7.40;7.10;;;;;;;41.05;16.57;100429.31;5051437;28;20033;-63
2022/06/08 06:52:45;;;;;;;7.63;7.32;;;;;;;40.45;16.78;100421.13;5049852;28;20427;-62
2022/06/08 06:55:26;;;;;;;7.43;7.13;;;;;;;41.31;16.44;100422.81;5051697;28;20100;-62
2022/06/08 06:57:54;;;;;;;7.32;7.03;;;;;;;40.22;17.09;100414.88;5051705;28;20025;-62
2022/06/08 07:00:20;;;;;;;7.40;7.10;;;;;;;41.51;15.82;100420.56;5047761;28;20048;-63
2022/06/08 07:02:46;;;;;;;7.22;6.93;;;;;;;39.98;17.14;100418.91;5045787;28;20106;-64
2022/06/08 07:05:18;;;;;;;7.38;7.07;;;;;;;39.36;17.80;100415.59;5051652;28;20036;-64
2022/06/08 07:07:44;;;;;;;7.28;6.97;;;;;;;35.55;21.28;100407.06;5051915;28;20673;-63
2022/06/08 07:10:10;;;;;;;7.38;7.07;;;;;;;38.47;17.86;100414.75;5046971;28;20029;-64
2022/06/08 07:12:35;;;;;;;7.25;6.95;;;;;;;39.93;17.02;100405.34;5050595;28;20056;-64
2022/06/08 07:15:01;;;;;;;7.32;7.03;;;;;;;40.10;17.24;100410.34;5051577;28;20540;-63
2022/06/08 07:17:26;;;;;;;7.22;6.93;;;;;;;37.93;19.13;100407.28;5051247;28;20060;-63
2022/06/08 07:19:52;;;;;;;7.13;6.82;;;;;;;38.23;18.97;100401.97;5051494;28;20024;-63
2022/06/08 07:22:18;;;;;;;7.05;6.75;;;;;;;37.14;19.57;100396.28;5051611;28;20021;-64
2022/06/08 07:24:43;;;;;;;7.10;6.80;;;;;;;39.98;17.99;100405.81;5051157;28;20040;-64
2022/06/08 07:27:09;;;;;;;7.20;6.90;;;;;;;39.94;17.73;100404.97;5050466;28;20353;-64
2022/06/08 07:29:34;;;;;;;7.20;6.90;;;;;;;40.09;17.77;100397.63;5051707;28;20033;-64
2022/06/08 07:32:00;;;;;;;7.20;6.90;;;;;;;40.37;17.25;100402.75;5051503;28;20035;-63
2022/06/08 07:34:26;;;;;;;7.28;6.97;;;;;;;41.78;15.97;100396.06;5041005;28;20025;-65
2022/06/08 07:36:52;;;;;;;6.93;6.63;;;;;;;40.97;16.30;100397.03;5051150;28;20484;-63
2022/06/08 07:39:19;;;;;;;7.20;6.90;;;;;;;38.51;19.01;100390.69;5051452;28;20043;-64
2022/06/08 07:41:48;;;;;;;7.00;6.70;;;;;;;40.23;17.74;100403.38;5051391;28;20476;-64
2022/06/08 07:44:15;;;;;;;7.15;6.85;;;;;;;38.76;19.06;100387.59;5049966;28;20134;-64
2022/06/08 07:46:41;;;;;;;7.07;6.78;;;;;;;39.77;17.66;100395.22;5050780;28;20060;-63
2022/06/08 07:51:54;;;;;;;6.80;6.50;;;;;;;39.44;18.09;100386.75;5051453;28;20094;-64
2022/06/08 07:54:24;;;;;;;6.80;6.50;;;;;;;39.09;18.74;100395.31;5050222;28;20107;-63
2022/06/08 07:56:51;;;;;;;6.70;6.40;;;;;;;36.04;22.02;100379.41;5051328;28;20376;-63
2022/06/08 07:59:18;;;;;;;6.75;6.45;;;;;;;34.58;23.67;100378.16;5051156;28;20100;-64
2022/06/08 08:01:44;;;;;;;6.80;6.50;;;;;;;35.71;22.02;100383.16;5050328;28;20036;-63
2022/06/08 08:04:09;;;;;;;6.68;6.38;;;;;;;37.00;21.15;100377.38;5051100;28;20025;-63
2022/06/08 08:06:35;;;;;;;6.90;6.60;;;;;;;36.92;21.51;100375.59;5046276;28;20041;-63
2022/06/08 08:09:00;;;;;;;6.90;6.60;;;;;;;36.92;20.65;100380.31;5043401;28;20056;-63
2022/06/08 08:11:26;;;;;;;6.80;6.50;;;;;;;36.41;21.39;100375.38;5049566;28;20491;-64
2022/06/08 08:13:53;;;;;;;6.70;6.40;;;;;;;35.97;22.09;100375.28;5051213;28;20025;-63
2022/06/08 08:16:19;;;;;;;6.50;6.20;;;;;;;34.86;23.38;100370.09;5054769;28;20029;-63
2022/06/08 08:18:44;;;;;;;6.90;6.60;;;;;;;34.22;23.54;100368.59;5041618;28;20032;-64
2022/06/08 08:21:10;;;;;;;6.90;6.60;;;;;;;34.57;23.50;100368.28;5054987;28;20560;-62
2022/06/08 08:23:36;;;;;;;6.70;6.40;;;;;;;32.56;25.07;100358.72;5054844;28;20388;-64
2022/06/08 08:26:01;;;;;;;6.97;6.68;;;;;;;33.31;24.62;100366.56;5054602;28;20396;-64
2022/06/08 08:28:27;;;;;;;6.80;6.50;;;;;;;33.04;25.21;100357.63;5054592;28;20024;-62
2022/06/08 08:30:52;;;;;;;6.65;6.35;;;;;;;33.38;24.83;100358.66;5054539;28;20025;-63
2022/06/08 08:33:18;;;;;;;6.85;6.55;;;;;;;34.00;24.77;100358.72;5054238;28;20017;-62
2022/06/08 08:35:44;;;;;;;6.68;6.38;;;;;;;34.37;23.61;100347.88;5053213;28;20043;-62
2022/06/08 08:38:09;;;;;;;6.78;6.47;;;;;;;32.92;24.97;100352.84;5054325;28;20028;-64
2022/06/08 08:40:46;;;;;;;6.80;6.50;;;;;;;33.29;24.88;100347.66;5054076;28;20472;-64
2022/06/08 08:43:17;;;;;;;6.82;6.53;;;;;;;31.60;27.31;100349.63;5054144;28;20107;-62
2022/06/08 08:46:35;;;;;;;6.90;6.60;;;;;;;33.63;25.11;100346.66;5053821;28;20080;-63
2022/06/08 08:49:12;;;;;;;6.88;6.57;;;;;;;35.09;22.56;100351.19;5030282;28;20443;-62
2022/06/08 08:51:44;;;;;;;6.75;6.45;;;;;;;34.78;23.54;100337.91;5053272;28;20021;-62
2022/06/08 08:54:34;;;;;;;6.90;6.60;;;;;;;33.45;25.11;100334.97;5053410;28;20028;-63
2022/06/08 08:57:12;;;;;;;6.72;6.43;;;;;;;34.60;23.93;100329.84;5048438;28;20060;-63
2022/06/08 08:59:42;;;;;;;6.55;6.25;;;;;;;32.61;26.11;100322.03;5054011;28;20021;-63
2022/06/08 09:02:13;;;;;;;6.90;6.60;;;;;;;32.28;26.65;100319.00;5039802;28;20029;-63
2022/06/08 09:04:47;;;;;;;6.80;6.50;;;;;;;33.03;25.66;100320.28;5044316;28;20065;-64
2022/06/08 09:07:17;;;;;;;6.80;6.50;;;;;;;30.74;28.32;100327.34;5053741;28;20036;-63
2022/06/08 09:09:43;;;;;;;6.53;6.22;;;;;;;30.12;29.38;100319.88;5040919;28;20029;-65
2022/06/08 09:12:19;;;;;;;6.70;6.40;;;;;;;30.09;29.68;100327.88;5053450;28;20027;-64
2022/06/08 09:14:55;;;;;;;6.60;6.30;;;;;;;30.11;29.67;100329.16;5053824;28;20032;-63
2022/06/08 09:17:32;;;;;;;6.50;6.20;;;;;;;30.62;29.16;100327.09;5053617;28;20152;-63
2022/06/08 09:20:00;;;;;;;6.60;6.30;;;;;;;30.19;29.79;100319.44;5053837;28;20477;-64
2022/06/08 09:22:31;;;;;;;6.53;6.22;;;;;;;29.32;31.18;100312.28;5053567;28;20020;-63
2022/06/08 09:25:03;;;;;;;6.70;6.40;;;;;;;29.47;30.77;100319.38;5051882;28;20068;-62
2022/06/08 09:27:47;;;;;;;6.35;6.07;;;;;;;29.84;30.94;100308.16;5053762;28;20044;-63
2022/06/08 09:30:18;;;;;;;6.70;6.40;;;;;;;29.41;31.44;100310.47;5052983;28;20025;-64
2022/06/08 09:32:50;;;;;;;6.57;6.28;;;;;;;28.79;32.05;100313.56;5041691;28;20912;-64
2022/06/08 09:35:21;;;;;;;6.40;6.10;;;;;;;29.65;30.84;100312.97;5053403;28;20021;-64
2022/06/08 09:37:50;;;;;;;6.63;6.32;;;;;;;30.04;30.85;100308.78;5053185;28;20067;-62
2022/06/08 09:40:37;;;;;;;6.68;6.38;;;;;;;30.85;29.05;100311.44;5052988;28;20025;-63
2022/06/08 09:43:10;;;;;;;6.90;6.60;;;;;;;30.93;29.61;100307.97;5052013;28;20032;-63
2022/06/08 09:46:16;;;;;;;6.63;6.33;;;;;;;31.15;29.52;100301.59;5045967;28;20045;-63
2022/06/08 09:52:09;;;;;;;6.70;6.40;;;;;;;31.88;28.27;100284.34;5052918;28;20039;-63
2022/06/08 09:55:02;;;;;;;6.47;6.18;;;;;;;31.58;28.09;100293.47;5052838;28;20055;-63
2022/06/08 09:57:39;;;;;;;6.80;6.50;;;;;;;31.63;27.37;100287.84;5037522;28;20045;-64
2022/06/08 10:00:20;;;;;;;6.07;5.88;;;;;;;31.62;27.50;100288.97;5051959;28;20134;-63
2022/06/08 10:03:13;;;;;;;6.55;6.25;;;;;;;31.71;27.19;100288.97;5053152;28;20024;-63
2022/06/08 10:05:42;;;;;;;6.30;6.07;;;;;;;30.41;29.38;100286.56;5052725;28;20081;-62
2022/06/08 10:08:22;;;;;;;6.60;6.30;;;;;;;29.65;29.23;100278.25;5052351;28;20484;-62
2022/06/08 10:10:52;;;;;;;6.72;6.43;;;;;;;29.52;29.00;100259.13;5051424;28;20473;-64
2022/06/08 10:13:34;;;;;;;6.20;6.00;;;;;;;30.11;28.91;100270.91;5052489;28;20029;-63
2022/06/08 10:16:06;;;;;;;6.47;6.18;;;;;;;30.07;27.60;100269.91;5051902;28;20025;-63
2022/06/08 10:19:06;;;;;;;6.50;6.20;;;;;;;30.36;27.83;100273.00;5052567;28;20112;-62
2022/06/08 10:21:38;;;;;;;6.70;6.40;;;;;;;30.37;28.03;100263.69;5045247;28;20399;-63
2022/06/08 10:24:27;;;;;;;6.53;6.22;;;;;;;30.12;28.23;100267.06;5051180;28;20116;-63
2022/06/08 10:27:06;;;;;;;6.47;6.18;;;;;;;29.00;28.39;100258.56;5039707;28;20048;-62
2022/06/08 10:29:49;;;;;;;6.20;6.00;;;;;;;28.99;28.50;100263.22;5052296;28;20377;-63
2022/06/08 10:33:05;;;;;;;6.70;6.40;;;;;;;28.82;29.11;100261.06;5041582;28;20033;-63
2022/06/08 10:35:43;;;;;;;6.60;6.30;;;;;;;28.77;29.15;100261.16;5042004;28;20399;-63
2022/06/08 10:38:32;;;;;;;6.80;6.50;;;;;;;30.17;27.52;100254.06;5043837;28;20120;-64
2022/06/08 10:42:39;;;;;;;6.50;6.20;;;;;;;30.72;27.44;100252.94;5040528;28;20035;-64
2022/06/08 10:43:56;;;;;;;6.50;6.20;;;;;;;30.40;28.24;100251.28;5050686;28;20385;-64
2022/06/08 10:46:45;;;;;;;6.70;6.40;;;;;;;31.27;27.83;100247.00;5051860;28;20048;-64
2022/06/08 10:49:29;;;;;;;6.80;6.50;;;;;;;31.20;27.34;100268.53;5051814;28;20039;-63
2022/06/08 10:52:20;;;;;;;6.60;6.30;;;;;;;30.08;26.58;100253.16;5039847;28;20036;-63
2022/06/08 10:54:54;;;;;;;6.53;6.22;;;;;;;30.52;26.17;100244.09;5051245;28;20024;-63
2022/06/08 10:57:35;;;;;;;;;;;;;;;31.19;25.43;100247.75;5032606;28;20445;-63
2022/06/08 11:00:19;;;;;;;6.55;6.25;;;;;;;30.52;26.14;100249.59;5050182;28;19936;-62
2022/06/08 11:02:51;;;;;;;6.70;6.40;;;;;;;29.60;27.08;100239.25;5051662;28;20051;-63
2022/06/08 11:05:38;;;;;;;6.70;6.40;;;;;;;29.92;26.95;100238.25;5051917;28;20082;-62
2022/06/08 11:08:07;;;;;;;6.57;6.28;;;;;;;30.06;26.70;100243.66;5050753;28;20024;-64
2022/06/08 11:10:41;;;;;;;6.43;6.13;;;;;;;29.78;27.63;100238.31;5051521;28;20024;-63
2022/06/08 11:13:19;;;;;;;6.55;6.25;;;;;;;30.25;28.46;100239.59;5039414;28;20025;-62
2022/06/08 11:16:00;;;;;;;6.60;6.30;;;;;;;30.21;28.60;100237.84;5051528;28;20064;-64
2022/06/08 11:19:04;;;;;;;6.20;6.00;;;;;;;29.86;27.66;100243.03;5051483;28;20029;-64
2022/06/08 11:21:54;;;;;;;6.70;6.40;;;;;;;29.77;27.80;100230.41;5030288;28;20045;-64
2022/06/08 11:24:35;;;;;;;6.43;6.15;;;;;;;29.94;29.23;100228.59;5043239;28;20029;-64
2022/06/08 11:27:00;;;;;;;6.70;6.40;;;;;;;30.29;27.83;100233.53;5048300;28;20053;-63
2022/06/08 11:29:29;;;;;;;6.50;6.20;;;;;;;29.91;27.16;100231.16;5051162;28;20055;-64
2022/06/08 11:31:56;;;;;;;6.80;6.50;;;;;;;30.04;27.38;100224.00;5051352;28;20029;-65
2022/06/08 11:34:21;;;;;;;6.50;6.20;;;;;;;30.03;27.39;100219.66;5051620;28;20475;-64
2022/06/08 11:37:24;;;;;;;6.65;6.35;;;;;;;30.02;28.45;100228.97;5051657;28;20108;-64
2022/06/08 11:40:11;;;;;;;6.60;6.30;;;;;;;29.14;30.76;100221.94;5046060;28;20108;-63
2022/06/08 11:42:48;;;;;;;6.57;6.28;;;;;;;28.98;31.12;100217.91;5050429;28;20035;-63
2022/06/08 11:45:19;;;;;;;6.63;6.32;;;;;;;28.95;31.61;100215.81;5051134;28;20079;-63
2022/06/08 11:47:44;;;;;;;6.40;6.10;;;;;;;28.20;32.17;100208.69;5051716;28;20051;-64
2022/06/08 11:50:37;;;;;;;6.65;6.35;;;;;;;28.77;31.98;100217.47;5054741;28;20506;-64